createdAt,value
2017-08-04T00:00:16.554Z,19.20
2017-08-04T00:02:44.026Z,19.20
2017-08-04T00:05:12.266Z,19.10
2017-08-04T00:07:40.525Z,19.10
2017-08-04T00:10:08.002Z,19.10
2017-08-04T00:12:35.454Z,19.10
2017-08-04T00:15:02.914Z,19.00
2017-08-04T00:17:30.382Z,19.00
2017-08-04T00:19:57.862Z,19.00
2017-08-04T00:22:25.338Z,18.90
2017-08-04T00:24:52.834Z,18.90
2017-08-04T00:27:20.305Z,18.90
2017-08-04T00:29:47.757Z,18.90
2017-08-04T00:32:15.221Z,18.80
2017-08-04T00:34:42.673Z,18.80
2017-08-04T00:37:10.162Z,18.80
2017-08-04T00:39:38.710Z,18.80
2017-08-04T00:42:06.945Z,18.70
2017-08-04T00:44:35.225Z,18.70
2017-08-04T00:47:02.678Z,18.70
2017-08-04T00:49:30.900Z,18.60
2017-08-04T00:51:58.400Z,18.60
2017-08-04T00:54:26.618Z,18.60
2017-08-04T00:56:54.062Z,18.50
2017-08-04T00:59:21.562Z,18.60
2017-08-04T01:01:49.014Z,18.60
2017-08-04T01:04:16.473Z,18.60
2017-08-04T01:06:43.965Z,18.60
2017-08-04T01:09:11.483Z,18.60
2017-08-04T01:11:38.933Z,18.60
2017-08-04T01:14:06.409Z,18.50
2017-08-04T01:16:33.871Z,18.50
2017-08-04T01:19:01.341Z,18.50
2017-08-04T01:21:28.799Z,18.40
2017-08-04T01:23:56.292Z,18.50
2017-08-04T01:26:23.735Z,18.40
2017-08-04T01:28:51.205Z,18.40
2017-08-04T01:31:18.662Z,18.40
2017-08-04T01:33:46.121Z,18.40
2017-08-04T01:36:13.602Z,18.40
2017-08-04T01:38:41.072Z,18.40
2017-08-04T01:41:08.590Z,18.30
2017-08-04T01:43:36.809Z,18.30
2017-08-04T01:46:04.270Z,18.30
2017-08-04T01:48:31.751Z,18.30
2017-08-04T01:50:59.202Z,18.30
2017-08-04T01:53:26.690Z,18.20
2017-08-04T01:55:54.934Z,18.20
2017-08-04T01:58:22.398Z,18.20
2017-08-04T02:00:49.878Z,18.20
2017-08-04T02:03:17.405Z,18.20
2017-08-04T02:05:44.890Z,18.10
2017-08-04T02:08:12.358Z,18.10
2017-08-04T02:10:39.849Z,18.10
2017-08-04T02:13:07.303Z,18.00
2017-08-04T02:15:34.754Z,18.00
2017-08-04T02:18:02.239Z,18.00
2017-08-04T02:20:29.712Z,17.90
2017-08-04T02:22:57.174Z,17.90
2017-08-04T02:25:24.641Z,17.90
2017-08-04T02:27:52.089Z,17.90
2017-08-04T02:30:19.682Z,17.90
2017-08-04T02:32:47.177Z,17.80
2017-08-04T02:35:14.639Z,17.90
2017-08-04T02:37:42.111Z,17.90
2017-08-04T02:40:09.598Z,17.80
2017-08-04T02:42:37.090Z,17.80
2017-08-04T02:45:05.310Z,17.70
2017-08-04T02:47:32.778Z,17.70
2017-08-04T02:50:00.274Z,17.70
2017-08-04T02:52:28.503Z,17.70
2017-08-04T02:54:56.005Z,17.70
2017-08-04T02:57:24.255Z,17.70
2017-08-04T02:59:51.798Z,17.70
2017-08-04T03:02:19.273Z,17.70
2017-08-04T03:04:46.747Z,17.70
2017-08-04T03:07:14.236Z,17.70
2017-08-04T03:09:41.706Z,17.70
2017-08-04T03:12:09.165Z,17.60
2017-08-04T03:14:36.653Z,17.60
2017-08-04T03:17:04.104Z,17.70
2017-08-04T03:19:31.553Z,17.60
2017-08-04T03:21:59.065Z,17.60
2017-08-04T03:24:27.282Z,17.60
2017-08-04T03:26:54.734Z,17.60
2017-08-04T03:29:22.212Z,17.60
2017-08-04T03:31:49.665Z,17.60
2017-08-04T03:34:17.117Z,17.60
2017-08-04T03:36:44.611Z,17.60
2017-08-04T03:39:12.069Z,17.60
2017-08-04T03:41:39.514Z,17.60
2017-08-04T03:44:06.990Z,17.60
2017-08-04T03:46:34.437Z,17.70
2017-08-04T03:49:01.897Z,17.70
2017-08-04T03:51:29.369Z,17.70
2017-08-04T03:53:56.826Z,17.70
2017-08-04T03:56:24.302Z,17.70
2017-08-04T03:58:52.549Z,17.70
2017-08-04T04:01:20.041Z,17.70
2017-08-04T04:03:47.502Z,17.70
2017-08-04T04:06:15.736Z,17.70
2017-08-04T04:08:43.225Z,17.70
2017-08-04T04:11:11.757Z,17.70
2017-08-04T04:13:39.538Z,17.70
2017-08-04T04:16:07.026Z,17.70
2017-08-04T04:18:35.238Z,17.70
2017-08-04T04:21:02.689Z,17.70
2017-08-04T04:23:30.174Z,17.70
2017-08-04T04:25:57.629Z,17.70
2017-08-04T04:28:25.123Z,17.70
2017-08-04T04:30:52.587Z,17.70
2017-08-04T04:33:20.043Z,17.70
2017-08-04T04:35:47.519Z,17.70
2017-08-04T04:38:15.741Z,17.80
2017-08-04T04:40:43.225Z,17.80
2017-08-04T04:45:44.482Z,17.80
2017-08-04T04:48:11.934Z,17.80
2017-08-04T04:50:39.392Z,17.90
2017-08-04T04:53:06.894Z,17.90
2017-08-04T04:55:35.130Z,18.00
2017-08-04T04:58:02.615Z,17.90
2017-08-04T05:00:30.854Z,18.00
2017-08-04T05:02:58.301Z,17.90
2017-08-04T05:05:25.770Z,18.00
2017-08-04T05:07:53.256Z,18.00
2017-08-04T05:10:20.710Z,18.00
2017-08-04T05:12:48.178Z,18.00
2017-08-04T05:15:15.654Z,18.10
2017-08-04T05:17:43.864Z,18.20
2017-08-04T05:20:11.359Z,18.10
2017-08-04T05:22:38.835Z,18.20
2017-08-04T05:25:06.287Z,18.30
2017-08-04T05:27:33.765Z,18.30
2017-08-04T05:30:01.239Z,18.30
2017-08-04T05:32:28.718Z,18.40
2017-08-04T05:34:56.182Z,18.40
2017-08-04T05:37:23.650Z,18.50
2017-08-04T05:39:51.141Z,18.50
2017-08-04T05:42:18.609Z,18.50
2017-08-04T05:44:46.061Z,18.60
2017-08-04T05:47:13.554Z,18.60
2017-08-04T05:49:41.002Z,18.60
2017-08-04T05:52:08.455Z,18.60
2017-08-04T05:54:35.930Z,18.60
2017-08-04T05:57:03.437Z,18.60
2017-08-04T05:59:30.905Z,18.60
2017-08-04T06:01:58.370Z,18.60
2017-08-04T06:04:26.650Z,18.50
2017-08-04T06:06:54.866Z,18.60
2017-08-04T06:09:22.319Z,18.50
2017-08-04T06:11:49.817Z,18.50
2017-08-04T06:14:17.265Z,18.50
2017-08-04T06:16:44.767Z,18.60
2017-08-04T06:19:12.273Z,18.80
2017-08-04T06:21:39.729Z,19.00
2017-08-04T06:24:07.265Z,19.10
2017-08-04T06:26:34.722Z,19.10
2017-08-04T06:29:02.198Z,19.20
2017-08-04T06:31:29.669Z,19.30
2017-08-04T06:33:57.164Z,19.30
2017-08-04T06:36:25.399Z,19.40
2017-08-04T06:38:52.907Z,19.40
2017-08-04T06:41:21.128Z,19.60
2017-08-04T06:43:48.577Z,19.50
2017-08-04T06:46:16.078Z,19.60
2017-08-04T06:48:55.234Z,19.70
2017-08-04T06:51:34.559Z,19.70
2017-08-04T06:54:14.424Z,19.80
2017-08-04T06:56:41.894Z,19.80
2017-08-04T06:59:09.349Z,19.80
2017-08-04T07:01:36.842Z,19.90
2017-08-04T07:04:04.301Z,19.90
2017-08-04T07:06:31.805Z,20.00
2017-08-04T07:08:59.301Z,20.10
2017-08-04T07:11:26.769Z,20.10
2017-08-04T07:13:54.244Z,20.20
2017-08-04T07:16:21.702Z,20.20
2017-08-04T07:18:49.170Z,20.20
2017-08-04T07:21:16.636Z,20.20
2017-08-04T07:23:44.087Z,20.30
2017-08-04T07:26:11.581Z,20.30
2017-08-04T07:28:39.048Z,20.40
2017-08-04T07:31:06.518Z,20.40
2017-08-04T07:33:34.009Z,20.40
2017-08-04T07:36:01.470Z,20.50
2017-08-04T07:38:29.009Z,20.60
2017-08-04T07:40:56.493Z,20.70
2017-08-04T07:43:23.941Z,20.80
2017-08-04T07:45:51.401Z,20.90
2017-08-04T07:48:18.881Z,20.90
2017-08-04T07:50:46.362Z,20.90
2017-08-04T07:53:13.858Z,20.90
2017-08-04T07:55:41.327Z,20.90
2017-08-04T07:58:08.806Z,21.00
2017-08-04T08:00:36.281Z,20.90
2017-08-04T08:03:03.734Z,21.10
2017-08-04T08:05:31.222Z,21.10
2017-08-04T08:07:58.715Z,21.20
2017-08-04T08:10:26.164Z,21.10
2017-08-04T08:12:53.640Z,21.20
2017-08-04T08:15:21.150Z,21.20
2017-08-04T08:17:48.639Z,21.20
2017-08-04T08:20:16.110Z,21.30
2017-08-04T08:22:43.563Z,21.40
2017-08-04T08:25:11.050Z,21.50
2017-08-04T08:27:38.502Z,21.60
2017-08-04T08:30:06.050Z,21.70
2017-08-04T08:32:33.513Z,21.70
2017-08-04T08:35:00.997Z,21.80
2017-08-04T08:37:28.449Z,21.90
2017-08-04T08:39:55.925Z,22.10
2017-08-04T08:42:23.395Z,22.10
2017-08-04T08:44:50.846Z,22.10
2017-08-04T08:47:18.323Z,22.00
2017-08-04T08:49:45.765Z,21.90
2017-08-04T08:52:13.245Z,21.80
2017-08-04T08:54:40.711Z,21.70
2017-08-04T08:57:08.166Z,21.50
2017-08-04T08:59:35.683Z,21.50
2017-08-04T09:02:03.142Z,21.50
2017-08-04T09:04:30.595Z,21.70
2017-08-04T09:06:58.074Z,22.00
2017-08-04T09:09:25.550Z,22.10
2017-08-04T09:11:53.010Z,22.30
2017-08-04T09:14:20.501Z,22.50
2017-08-04T09:16:47.954Z,22.70
2017-08-04T09:19:15.406Z,22.80
2017-08-04T09:21:42.902Z,22.90
2017-08-04T09:24:10.394Z,22.90
2017-08-04T09:26:37.849Z,22.90
2017-08-04T09:29:05.306Z,22.90
2017-08-04T09:31:32.799Z,23.00
2017-08-04T09:34:00.275Z,23.10
2017-08-04T09:36:27.757Z,23.20
2017-08-04T09:38:55.233Z,23.30
2017-08-04T09:41:22.719Z,23.40
2017-08-04T09:43:51.050Z,23.40
2017-08-04T09:46:20.093Z,23.50
2017-08-04T09:48:47.635Z,23.60
2017-08-04T09:51:15.165Z,23.70
2017-08-04T09:53:42.933Z,23.60
2017-08-04T09:56:10.473Z,23.50
2017-08-04T09:58:38.871Z,23.30
2017-08-04T10:01:06.466Z,23.40
2017-08-04T10:03:33.952Z,23.60
2017-08-04T10:06:03.008Z,23.70
2017-08-04T10:08:31.362Z,23.70
2017-08-04T10:10:59.606Z,23.70
2017-08-04T10:13:27.468Z,23.50
2017-08-04T10:15:54.914Z,23.30
2017-08-04T10:18:22.374Z,23.10
2017-08-04T10:20:50.184Z,22.90
2017-08-04T10:23:18.190Z,22.90
2017-08-04T10:25:45.725Z,22.90
2017-08-04T10:28:13.191Z,22.80
2017-08-04T10:30:40.661Z,22.70
2017-08-04T10:33:08.605Z,22.60
2017-08-04T10:35:36.476Z,22.70
2017-08-04T10:38:04.026Z,22.80
2017-08-04T10:40:31.490Z,22.80
2017-08-04T10:42:58.967Z,22.90
2017-08-04T10:45:27.054Z,22.90
2017-08-04T10:47:55.080Z,22.90
2017-08-04T10:50:23.118Z,22.80
2017-08-04T10:52:50.707Z,22.80
2017-08-04T10:55:18.400Z,23.10
2017-08-04T10:57:45.976Z,23.30
2017-08-04T11:00:13.769Z,23.40
2017-08-04T11:02:41.817Z,23.40
2017-08-04T11:05:09.301Z,23.40
2017-08-04T11:07:37.373Z,23.30
2017-08-04T11:10:05.074Z,23.10
2017-08-04T11:12:32.752Z,23.10
2017-08-04T11:15:00.502Z,23.10
2017-08-04T11:17:27.945Z,23.20
2017-08-04T11:19:55.484Z,23.30
2017-08-04T11:22:22.991Z,23.40
2017-08-04T11:24:50.468Z,23.50
2017-08-04T11:27:17.926Z,23.40
2017-08-04T11:29:45.397Z,23.40
2017-08-04T11:32:12.854Z,23.30
2017-08-04T11:34:40.334Z,23.30
2017-08-04T11:37:07.785Z,23.50
2017-08-04T11:39:35.255Z,23.80
2017-08-04T11:42:02.742Z,24.00
2017-08-04T11:44:30.186Z,24.20
2017-08-04T11:46:57.675Z,24.30
2017-08-04T11:49:25.897Z,24.30
2017-08-04T11:51:53.381Z,24.30
2017-08-04T11:54:20.839Z,24.40
2017-08-04T11:56:48.290Z,24.60
2017-08-04T11:59:15.765Z,24.80
2017-08-04T12:01:43.250Z,24.80
2017-08-04T12:04:10.710Z,24.70
2017-08-04T12:06:38.932Z,24.70
2017-08-04T12:09:06.445Z,24.60
2017-08-04T12:11:33.909Z,24.80
2017-08-04T12:14:01.361Z,25.10
2017-08-04T12:16:28.862Z,25.40
2017-08-04T12:18:56.309Z,25.50
2017-08-04T12:21:23.762Z,25.50
2017-08-04T12:23:51.233Z,25.40
2017-08-04T12:26:18.714Z,25.30
2017-08-04T12:28:46.174Z,25.20
2017-08-04T12:31:13.656Z,25.10
2017-08-04T12:33:41.554Z,24.90
2017-08-04T12:36:09.021Z,24.70
2017-08-04T12:38:36.473Z,24.60
2017-08-04T12:41:03.979Z,24.70
2017-08-04T12:43:31.424Z,24.80
2017-08-04T12:45:58.874Z,25.00
2017-08-04T12:48:26.369Z,25.20
2017-08-04T12:50:53.837Z,25.40
2017-08-04T12:53:22.066Z,25.80
2017-08-04T12:55:49.542Z,25.80
2017-08-04T12:58:17.026Z,26.00
2017-08-04T13:00:45.272Z,26.20
2017-08-04T13:03:12.741Z,26.20
2017-08-04T13:05:40.214Z,26.40
2017-08-04T13:08:08.506Z,26.50
2017-08-04T13:10:35.965Z,26.50
2017-08-04T13:13:03.414Z,26.40
2017-08-04T13:15:31.656Z,26.30
2017-08-04T13:17:59.138Z,26.30
2017-08-04T13:20:27.375Z,26.10
2017-08-04T13:22:54.829Z,26.10
2017-08-04T13:25:22.298Z,26.00
2017-08-04T13:27:49.794Z,25.90
2017-08-04T13:30:18.033Z,25.70
2017-08-04T13:32:45.485Z,25.70
2017-08-04T13:35:12.986Z,25.60
2017-08-04T13:37:41.213Z,25.80
2017-08-04T13:40:08.665Z,25.80
2017-08-04T13:42:36.149Z,26.00
2017-08-04T13:45:03.625Z,26.20
2017-08-04T13:47:31.108Z,26.20
2017-08-04T13:49:58.570Z,26.50
2017-08-04T13:52:26.034Z,27.10
2017-08-04T13:54:53.510Z,27.80
2017-08-04T13:57:20.991Z,28.50
2017-08-04T13:59:48.458Z,29.20
2017-08-04T14:02:15.942Z,30.00
2017-08-04T14:04:43.397Z,30.50
2017-08-04T14:07:10.858Z,30.20
2017-08-04T14:09:38.353Z,30.40
2017-08-04T14:12:05.815Z,31.70
2017-08-04T14:14:33.278Z,33.20
2017-08-04T14:17:00.750Z,33.80
2017-08-04T14:19:28.237Z,35.00
2017-08-04T14:21:55.796Z,34.40
2017-08-04T14:24:23.250Z,33.90
2017-08-04T14:26:50.741Z,33.80
2017-08-04T14:29:18.206Z,35.80
2017-08-04T14:31:45.665Z,35.90
2017-08-04T14:34:13.173Z,34.80
2017-08-04T14:36:40.616Z,34.00
2017-08-04T14:39:08.065Z,33.10
2017-08-04T14:41:35.546Z,33.60
2017-08-04T14:44:02.992Z,35.60
2017-08-04T14:46:30.478Z,36.20
2017-08-04T14:48:57.947Z,35.40
2017-08-04T14:51:25.413Z,34.60
2017-08-04T14:53:52.917Z,33.70
2017-08-04T14:56:20.382Z,32.80
2017-08-04T14:58:47.825Z,32.80
2017-08-04T15:01:15.310Z,32.60
2017-08-04T15:03:42.774Z,32.90
2017-08-04T15:06:10.253Z,34.30
2017-08-04T15:08:37.701Z,33.10
2017-08-04T15:11:05.169Z,31.70
2017-08-04T15:13:33.394Z,29.40
2017-08-04T15:16:00.853Z,29.40
2017-08-04T15:18:28.313Z,28.60
2017-08-04T15:20:55.796Z,27.90
2017-08-04T15:23:23.254Z,27.50
2017-08-04T15:25:50.708Z,27.10
2017-08-04T15:28:18.218Z,26.70
2017-08-04T15:30:45.669Z,26.30
2017-08-04T15:33:13.117Z,26.10
2017-08-04T15:35:41.371Z,25.70
2017-08-04T15:38:08.821Z,25.70
2017-08-04T15:40:36.278Z,25.60
2017-08-04T15:43:03.770Z,25.60
2017-08-04T15:45:31.985Z,25.60
2017-08-04T15:47:59.434Z,25.60
2017-08-04T15:50:26.910Z,25.50
2017-08-04T15:52:54.386Z,25.40
2017-08-04T15:55:21.870Z,25.20
2017-08-04T15:57:49.339Z,25.10
2017-08-04T16:00:16.818Z,25.10
2017-08-04T16:02:44.260Z,25.40
2017-08-04T16:05:11.719Z,25.40
2017-08-04T16:07:39.192Z,25.30
2017-08-04T16:10:06.646Z,25.10
2017-08-04T16:12:34.138Z,25.00
2017-08-04T16:15:01.595Z,25.10
2017-08-04T16:17:29.070Z,25.20
2017-08-04T16:19:56.569Z,25.30
2017-08-04T16:22:24.067Z,25.20
2017-08-04T16:24:51.513Z,25.20
2017-08-04T16:27:18.962Z,25.40
2017-08-04T16:29:46.456Z,25.50
2017-08-04T16:32:13.909Z,25.60
2017-08-04T16:34:41.366Z,25.80
2017-08-04T16:37:08.854Z,26.00
2017-08-04T16:39:36.310Z,26.00
2017-08-04T16:42:03.766Z,26.00
2017-08-04T16:44:31.239Z,25.90
2017-08-04T16:46:58.685Z,25.80
2017-08-04T16:49:26.180Z,25.80
2017-08-04T16:51:53.634Z,25.60
2017-08-04T16:54:21.085Z,25.70
2017-08-04T16:56:48.562Z,25.70
2017-08-04T16:59:16.026Z,25.80
2017-08-04T17:01:43.500Z,25.90
2017-08-04T17:04:10.961Z,25.70
2017-08-04T17:06:38.422Z,25.60
2017-08-04T17:09:05.913Z,25.50
2017-08-04T17:11:34.138Z,25.20
2017-08-04T17:14:01.630Z,25.20
2017-08-04T17:16:29.088Z,25.10
2017-08-04T17:18:56.543Z,25.10
2017-08-04T17:21:24.025Z,25.20
2017-08-04T17:23:51.470Z,25.20
2017-08-04T17:26:18.924Z,25.30
2017-08-04T17:28:46.404Z,25.40
2017-08-04T17:31:13.853Z,25.30
2017-08-04T17:33:41.334Z,25.10
2017-08-04T17:36:08.778Z,25.00
2017-08-04T17:38:36.250Z,24.80
2017-08-04T17:41:03.697Z,24.90
2017-08-04T17:43:31.170Z,24.90
2017-08-04T17:45:58.623Z,25.30
2017-08-04T17:48:26.117Z,25.40
2017-08-04T17:50:53.574Z,25.90
2017-08-04T17:53:21.028Z,25.70
2017-08-04T17:55:48.502Z,25.30
2017-08-04T17:58:27.852Z,25.00
2017-08-04T18:00:55.333Z,24.80
2017-08-04T18:03:23.554Z,24.50
2017-08-04T18:05:51.008Z,24.40
2017-08-04T18:08:18.497Z,24.30
2017-08-04T18:10:45.954Z,24.10
2017-08-04T18:13:13.401Z,24.10
2017-08-04T18:15:41.710Z,24.00
2017-08-04T18:18:09.169Z,23.90
2017-08-04T18:20:36.650Z,23.80
2017-08-04T18:23:04.102Z,23.80
2017-08-04T18:25:31.555Z,23.70
2017-08-04T18:27:59.031Z,23.60
2017-08-04T18:30:26.487Z,23.60
2017-08-04T18:32:53.962Z,23.50
2017-08-04T18:35:21.450Z,23.50
2017-08-04T18:37:48.901Z,23.40
2017-08-04T18:40:16.345Z,23.40
2017-08-04T18:42:43.825Z,23.40
2017-08-04T18:45:11.302Z,23.30
2017-08-04T18:47:38.785Z,23.20
2017-08-04T18:50:06.237Z,23.20
2017-08-04T18:52:34.483Z,23.10
2017-08-04T18:55:01.937Z,23.10
2017-08-04T18:57:29.409Z,23.00
2017-08-04T18:59:56.870Z,23.00
2017-08-04T19:02:25.090Z,22.90
2017-08-04T19:04:52.582Z,22.90
2017-08-04T19:07:20.038Z,22.90
2017-08-04T19:09:47.489Z,22.90
2017-08-04T19:12:14.979Z,22.90
2017-08-04T19:14:42.434Z,22.90
2017-08-04T19:17:09.914Z,22.80
2017-08-04T19:19:38.169Z,22.70
2017-08-04T19:22:05.626Z,22.70
2017-08-04T19:24:34.074Z,22.70
2017-08-04T19:27:01.552Z,22.60
2017-08-04T19:29:28.998Z,22.60
2017-08-04T19:31:56.486Z,22.60
2017-08-04T19:34:23.946Z,22.50
2017-08-04T19:36:51.433Z,22.50
2017-08-04T19:39:18.878Z,22.50
2017-08-04T19:41:46.329Z,22.40
2017-08-04T19:44:13.809Z,22.40
2017-08-04T19:46:41.269Z,22.40
2017-08-04T19:49:08.737Z,22.40
2017-08-04T19:51:36.209Z,22.40
2017-08-04T19:54:03.658Z,22.40
2017-08-04T19:56:31.163Z,22.40
2017-08-04T19:58:58.616Z,22.30
2017-08-04T20:01:26.057Z,22.30
2017-08-04T20:03:53.538Z,22.30
2017-08-04T20:06:20.993Z,22.30
2017-08-04T20:08:48.445Z,22.30
2017-08-04T20:11:15.962Z,22.20
2017-08-04T20:13:43.426Z,22.20
2017-08-04T20:16:10.886Z,22.10
2017-08-04T20:18:38.361Z,22.00
2017-08-04T20:21:05.806Z,22.00
2017-08-04T20:23:33.298Z,22.00
2017-08-04T20:26:00.791Z,22.00
2017-08-04T20:28:28.241Z,21.90
2017-08-04T20:30:55.694Z,21.90
2017-08-04T20:33:23.933Z,21.70
2017-08-04T20:35:51.414Z,21.70
2017-08-04T20:38:19.634Z,21.50
2017-08-04T20:40:47.110Z,21.50
2017-08-04T20:43:14.600Z,21.50
2017-08-04T20:45:42.050Z,21.40
2017-08-04T20:48:09.533Z,21.30
2017-08-04T20:50:37.764Z,21.30
2017-08-04T20:53:05.221Z,21.30
2017-08-04T20:55:32.702Z,21.30
2017-08-04T20:58:00.155Z,21.30
2017-08-04T21:00:27.637Z,21.20
2017-08-04T21:02:55.866Z,21.10
2017-08-04T21:05:23.317Z,21.10
2017-08-04T21:07:50.788Z,21.00
2017-08-04T21:10:18.238Z,20.90
2017-08-04T21:12:45.759Z,20.90
2017-08-04T21:15:13.214Z,20.90
2017-08-04T21:17:40.674Z,20.80
2017-08-04T21:20:08.151Z,20.80
2017-08-04T21:22:35.625Z,20.70
2017-08-04T21:25:03.079Z,20.60
2017-08-04T21:27:30.525Z,20.50
2017-08-04T21:29:58.001Z,20.50
2017-08-04T21:32:25.479Z,20.50
2017-08-04T21:34:53.006Z,20.40
2017-08-04T21:37:20.457Z,20.40
2017-08-04T21:39:47.905Z,20.40
2017-08-04T21:42:15.393Z,20.30
2017-08-04T21:44:42.847Z,20.30
2017-08-04T21:47:10.301Z,20.30
2017-08-04T21:49:37.776Z,20.20
2017-08-04T21:52:05.290Z,20.20
2017-08-04T21:54:32.747Z,20.20
2017-08-04T21:57:00.194Z,20.10
2017-08-04T21:59:27.682Z,20.10
2017-08-04T22:01:55.136Z,20.10
2017-08-04T22:04:22.583Z,20.00
2017-08-04T22:06:50.055Z,20.00
2017-08-04T22:09:17.529Z,20.00
2017-08-04T22:11:44.986Z,19.90
2017-08-04T22:14:12.458Z,19.90
2017-08-04T22:16:39.914Z,19.90
2017-08-04T22:19:07.412Z,19.80
2017-08-04T22:21:35.630Z,19.70
2017-08-04T22:24:03.073Z,19.70
2017-08-04T22:26:30.549Z,19.70
2017-08-04T22:28:58.026Z,19.70
2017-08-04T22:31:25.482Z,19.60
2017-08-04T22:33:52.953Z,19.60
2017-08-04T22:36:20.434Z,19.50
2017-08-04T22:38:48.689Z,19.40
2017-08-04T22:41:16.149Z,19.40
2017-08-04T22:43:43.702Z,19.40
2017-08-04T22:46:11.185Z,19.30
2017-08-04T22:48:38.638Z,19.30
2017-08-04T22:51:06.122Z,19.30
2017-08-04T22:53:33.578Z,19.20
2017-08-04T22:56:01.079Z,19.20
2017-08-04T22:58:28.542Z,19.10
2017-08-04T23:00:55.989Z,19.10
2017-08-04T23:03:23.486Z,19.10
2017-08-04T23:05:50.939Z,19.10
2017-08-04T23:08:18.385Z,19.10
2017-08-04T23:10:45.856Z,19.10
2017-08-04T23:13:13.340Z,19.00
2017-08-04T23:15:40.821Z,19.10
2017-08-04T23:18:08.270Z,19.00
2017-08-04T23:20:35.726Z,19.00
2017-08-04T23:23:03.223Z,18.90
2017-08-04T23:25:30.678Z,18.90
2017-08-04T23:27:58.130Z,18.90
2017-08-04T23:30:25.606Z,18.90
2017-08-04T23:32:53.054Z,18.90
2017-08-04T23:35:20.501Z,18.90
2017-08-04T23:37:47.998Z,18.80
2017-08-04T23:40:15.462Z,18.80
2017-08-04T23:42:43.686Z,18.80
2017-08-04T23:45:11.191Z,18.80
2017-08-04T23:47:38.647Z,18.70
2017-08-04T23:50:06.090Z,18.70
2017-08-04T23:52:33.570Z,18.70
2017-08-04T23:55:01.854Z,18.60
2017-08-04T23:57:30.069Z,18.60
2017-08-04T23:59:57.526Z,18.60
